TimeMST,TemperatureF,Dew PointF,Humidity,Sea Level PressureIn,VisibilityMPH,Wind Direction,Wind SpeedMPH,Gust SpeedMPH,PrecipitationIn,Events,Conditions,WindDirDegrees,DateUTC
1:45 AM,38,11,19,30.03,1,WNW,2.2,,,,,290,2012-12-12 08:45:00
4:45 AM,34,20,43,30.07,1,Calm,Calm,,,,,,2012-12-12 11:45:00
5:40 AM,30.2,10.4,44,30.19,10.0,Calm,Calm,-,N/A,,Clear,0,2012-12-12 12:40:00
5:42 AM,30.2,10.4,44,30.19,10.0,Calm,Calm,-,N/A,,Clear,0,2012-12-12 12:42:00
6:40 AM,26.6,8.6,47,30.20,10.0,SSW,6.9,-,N/A,,Clear,200,2012-12-12 13:40:00
7:42 AM,32.0,12.2,44,30.24,10.0,SSE,3.5,-,N/A,,Clear,150,2012-12-12 14:42:00
7:50 AM,36,23,47,30.15,6,Calm,Calm,,,,,,2012-12-12 14:50:00
8:44 AM,41.0,14.0,33,30.23,10.0,Calm,Calm,-,N/A,,Clear,0,2012-12-12 15:44:00
9:40 AM,48.2,17.6,30,30.23,10.0,Calm,Calm,-,N/A,,Clear,0,2012-12-12 16:40:00
10:40 AM,58,28,20,30.12,6,East,2.2,,,,,90,2012-12-12 17:40:00
10:45 AM,55.4,17.6,23,30.18,10.0,Calm,Calm,-,N/A,,Clear,0,2012-12-12 17:45:00
11:48 AM,59.0,19.4,22,30.17,10.0,East,5.8,-,N/A,,Clear,100,2012-12-12 18:48:00
12:40 PM,64.4,23.0,21,30.13,10.0,East,6.9,-,N/A,,Clear,90,2012-12-12 19:40:00
1:45 PM,55,30,26,29.94,6,South,4.5,,,,,180,2012-12-12 20:45:00
1:45 PM,66.2,24.8,21,30.02,10.0,SE,10.4,-,N/A,,Clear,140,2012-12-12 20:45:00
2:40 PM,66.2,24.8,21,30.08,10.0,SE,13.8,-,N/A,,Clear,130,2012-12-12 21:40:00
3:40 PM,66.2,23.0,19,30.06,10.0,SSE,11.5,-,N/A,,Clear,150,2012-12-12 22:40:00
4:45 PM,64,33,20,29.84,6,SSE,6.7,,,,,160,2012-12-12 23:45:00
4:45 PM,64.4,23.0,21,30.04,10.0,SE,9.2,-,N/A,,Clear,130,2012-12-12 23:45:00
5:40 PM,53.6,30.2,41,30.07,10.0,East,5.8,-,N/A,,Clear,90,2012-12-13 00:40:00
6:40 PM,51.8,19.4,28,30.09,10.0,Calm,Calm,-,N/A,,Clear,0,2012-12-13 01:40:00
7:33 PM,52,27,26,29.83,1,West,2.2,,,,,270,2012-12-13 02:33:00
7:45 PM,50.0,21.2,32,30.09,10.0,Calm,Calm,-,N/A,,Clear,0,2012-12-13 02:45:00
8:40 PM,39.2,15.8,39,30.12,10.0,ESE,3.5,-,N/A,,Clear,110,2012-12-13 03:40:00
9:40 PM,39.2,15.8,39,30.14,10.0,Calm,Calm,-,N/A,,Clear,0,2012-12-13 04:40:00
10:40 PM,42.8,17.6,36,30.08,10.0,Calm,Calm,-,N/A,,Clear,0,2012-12-13 05:40:00
10:44 PM,48,26,29,29.89,1,West,2.2,,,,,270,2012-12-13 05:44:00